Time;durP1;ratioP1;P1;durP2;ratioP2;P2;SDS_P1;SDS_P2;PMS_P1;PMS_P2;Temp;Humidity;BMP_temperature;BMP_pressure;BME280_temperature;BME280_humidity;BME280_pressure;Samples;Min_cycle;Max_cycle;Signal;HPM_P1;HPM_P2
2022/02/04 00:24:08;;;;;;;1999.90;999.90;;;7.80;99.90;;;;;;5073555;28;20520;-74
2022/02/04 00:26:39;;;;;;;1999.90;999.90;;;7.80;99.90;;;;;;5073984;28;20164;-74
2022/02/04 00:32:07;;;;;;;1999.90;999.90;;;7.80;99.90;;;;;;5073770;28;20559;-74
2022/02/04 00:34:23;;;;;;;1999.90;999.90;;;7.80;99.90;;;;;;5071133;28;20809;-74
2022/02/04 00:39:24;;;;;;;1999.90;999.90;;;7.80;99.90;;;;;;5073426;28;20772;-74
2022/02/04 00:41:50;;;;;;;1999.90;999.90;;;7.80;99.90;;;;;;5073540;28;20750;-74
2022/02/04 00:44:36;;;;;;;1999.90;999.90;;;7.80;99.90;;;;;;5073003;28;20437;-74
2022/02/04 00:47:09;;;;;;;1999.90;999.90;;;7.80;99.90;;;;;;5072912;28;20768;-74
2022/02/04 00:49:58;;;;;;;1999.90;999.90;;;7.80;99.90;;;;;;5073095;28;20599;-74
2022/02/04 00:52:46;;;;;;;1999.90;999.90;;;7.80;99.90;;;;;;5072251;28;20409;-74
2022/02/04 01:27:33;;;;;;;1999.90;999.90;;;7.80;99.90;;;;;;5072309;28;20917;-74
2022/02/04 01:30:05;;;;;;;1999.90;999.90;;;7.80;99.90;;;;;;5072173;28;20426;-74
2022/02/04 01:32:32;;;;;;;1999.90;999.90;;;7.80;99.90;;;;;;5072168;28;20410;-74
2022/02/04 01:34:57;;;;;;;1999.90;999.90;;;7.80;99.90;;;;;;5071757;28;20973;-74
2022/02/04 01:37:23;;;;;;;1999.90;999.90;;;7.80;99.90;;;;;;5072212;28;20413;-74
2022/02/04 01:39:49;;;;;;;1999.90;999.90;;;7.80;99.90;;;;;;5072266;28;20220;-74
2022/02/04 01:42:15;;;;;;;1999.90;999.90;;;7.80;99.90;;;;;;5071987;28;20216;-74
2022/02/04 01:44:41;;;;;;;1999.90;999.90;;;7.80;99.90;;;;;;5071704;28;20193;-74
2022/02/04 01:47:07;;;;;;;1999.90;999.90;;;7.80;99.90;;;;;;5072048;28;20962;-74
2022/02/04 01:49:34;;;;;;;1999.90;999.90;;;7.80;99.90;;;;;;5071970;28;20169;-74
2022/02/04 01:52:00;;;;;;;1999.90;999.90;;;7.90;99.90;;;;;;5072047;28;20224;-74
2022/02/04 01:54:26;;;;;;;1999.90;999.90;;;7.80;99.90;;;;;;5071510;28;20840;-74
2022/02/04 01:56:52;;;;;;;1999.90;999.90;;;7.90;99.90;;;;;;5071871;28;20479;-74
2022/02/04 01:59:18;;;;;;;1999.90;999.90;;;7.90;99.90;;;;;;5071954;28;20198;-74
2022/02/04 02:01:43;;;;;;;1999.90;999.90;;;7.90;99.90;;;;;;5072050;28;20402;-74
2022/02/04 02:04:12;;;;;;;1999.90;999.90;;;7.90;99.90;;;;;;5071445;28;20192;-74
2022/02/04 02:06:54;;;;;;;1999.90;999.90;;;7.90;99.90;;;;;;5072078;28;20647;-74
2022/02/04 02:09:26;;;;;;;1999.90;999.90;;;7.90;99.90;;;;;;5071819;28;20437;-74
2022/02/04 02:11:56;;;;;;;1999.90;999.90;;;8.00;99.90;;;;;;5055739;28;20421;-74
2022/02/04 02:14:24;;;;;;;1999.90;999.90;;;8.00;99.90;;;;;;5075564;28;20814;-74
2022/02/04 02:36:47;;;;;;;1999.90;999.90;;;7.90;99.90;;;;;;5075628;28;20490;-74
2022/02/04 02:51:31;;;;;;;1999.90;999.90;;;7.90;99.90;;;;;;5075706;28;20817;-74
2022/02/04 02:59:10;;;;;;;1999.90;999.90;;;7.90;99.90;;;;;;5075634;28;20401;-74
2022/02/04 03:01:37;;;;;;;1999.90;999.90;;;7.90;99.90;;;;;;5075467;28;20408;-74
2022/02/04 03:04:08;;;;;;;1999.90;999.90;;;7.90;99.90;;;;;;5074841;28;20471;-74
2022/02/04 03:06:33;;;;;;;1999.90;999.90;;;8.00;99.90;;;;;;5075186;28;20405;-74
2022/02/04 03:08:59;;;;;;;1999.90;999.90;;;8.00;99.90;;;;;;5075188;28;20456;-74
2022/02/04 03:11:25;;;;;;;1999.90;999.90;;;8.00;99.90;;;;;;5075326;28;20644;-74
2022/02/04 03:13:50;;;;;;;1999.90;999.90;;;8.00;99.90;;;;;;5075065;28;20195;-74
2022/02/04 03:16:18;;;;;;;1999.90;999.90;;;8.00;99.90;;;;;;5074882;28;20472;-74
2022/02/04 03:18:48;;;;;;;1999.90;999.90;;;7.90;99.90;;;;;;5074844;28;20533;-74
2022/02/04 03:21:22;;;;;;;1999.90;999.90;;;7.90;99.90;;;;;;5075199;28;20406;-74
2022/02/04 03:23:56;;;;;;;1999.90;999.90;;;7.90;99.90;;;;;;5074440;28;20421;-74
2022/02/04 03:28:47;;;;;;;1999.90;999.90;;;7.90;99.90;;;;;;5074886;28;20488;-74
2022/02/04 03:31:13;;;;;;;1999.90;999.90;;;7.90;99.90;;;;;;5075090;28;20171;-74
2022/02/04 03:33:41;;;;;;;1999.90;999.90;;;7.90;99.90;;;;;;5075924;28;20681;-74
2022/02/04 03:36:06;;;;;;;1999.90;999.90;;;7.90;99.90;;;;;;5076328;28;20201;-74
2022/02/04 03:38:32;;;;;;;1999.90;999.90;;;7.90;99.90;;;;;;5077334;28;20401;-74
2022/02/04 03:40:57;;;;;;;1999.90;999.90;;;8.00;99.90;;;;;;5076909;28;20716;-74
2022/02/04 03:43:23;;;;;;;1999.90;999.90;;;7.90;99.90;;;;;;5077743;28;20178;-74
2022/02/04 03:45:49;;;;;;;1999.90;999.90;;;7.90;99.90;;;;;;5077108;28;20656;-74
2022/02/04 03:48:14;;;;;;;1999.90;999.90;;;8.00;99.90;;;;;;5077306;28;20209;-74
2022/02/04 03:50:40;;;;;;;1999.90;999.90;;;8.00;99.90;;;;;;5077475;28;20170;-74
2022/02/04 03:53:13;;;;;;;1999.90;999.90;;;7.90;99.90;;;;;;5076593;28;20237;-74
2022/02/04 03:55:39;;;;;;;1999.90;999.90;;;7.90;99.90;;;;;;5076158;28;20187;-74
2022/02/04 03:58:04;;;;;;;1999.90;999.90;;;7.80;99.90;;;;;;5076778;28;20408;-74
2022/02/04 04:00:30;;;;;;;1999.90;999.90;;;7.90;99.90;;;;;;5076985;28;20393;-74
2022/02/04 04:02:56;;;;;;;1999.90;999.90;;;8.00;99.90;;;;;;5076718;28;20187;-74
2022/02/04 04:05:21;;;;;;;1999.90;999.90;;;7.90;99.90;;;;;;5076524;28;20209;-74
2022/02/04 04:07:49;;;;;;;1999.90;999.90;;;7.90;99.90;;;;;;5077753;28;20602;-74
2022/02/04 04:10:27;;;;;;;1999.90;999.90;;;7.90;99.90;;;;;;5076304;28;20305;-74
2022/02/04 04:12:57;;;;;;;1999.90;999.90;;;7.90;99.90;;;;;;5075130;28;20421;-74
2022/02/04 04:15:22;;;;;;;1999.90;999.90;;;7.90;99.90;;;;;;5073211;28;20821;-74
2022/02/04 04:17:48;;;;;;;1999.90;999.90;;;7.90;99.90;;;;;;5073605;28;20406;-75
2022/02/04 04:20:19;;;;;;;1999.90;999.90;;;7.90;99.90;;;;;;5073507;28;20398;-74
2022/02/04 04:22:45;;;;;;;1999.90;999.90;;;7.90;99.90;;;;;;5073591;28;20195;-75
2022/02/04 04:25:13;;;;;;;1999.90;999.90;;;7.90;99.90;;;;;;5073130;28;20407;-74
2022/02/04 04:27:42;;;;;;;1999.90;999.90;;;7.90;99.90;;;;;;5073317;28;20417;-74
2022/02/04 04:30:10;;;;;;;1999.90;999.90;;;7.90;99.90;;;;;;5073312;28;20541;-74
2022/02/04 04:32:36;;;;;;;1999.90;999.90;;;7.90;99.90;;;;;;5073167;28;20501;-74
2022/02/04 04:35:03;;;;;;;1999.90;999.90;;;7.90;99.90;;;;;;5071922;28;20540;-75
2022/02/04 04:37:29;;;;;;;1999.90;999.90;;;7.90;99.90;;;;;;5073099;28;20480;-75
2022/02/04 04:42:36;;;;;;;1999.90;999.90;;;7.90;99.90;;;;;;5072946;28;20242;-75
2022/02/04 05:30:52;;;;;;;1999.90;999.90;;;8.00;99.90;;;;;;5073932;28;20479;-74
2022/02/04 05:33:17;;;;;;;1999.90;999.90;;;8.00;99.90;;;;;;5075356;28;20191;-74
2022/02/04 05:35:43;;;;;;;1999.90;999.90;;;8.00;99.90;;;;;;5074863;28;20232;-74
2022/02/04 05:38:12;;;;;;;1999.90;999.90;;;8.10;99.90;;;;;;5057456;28;20203;-74
2022/02/04 05:40:42;;;;;;;1999.90;999.90;;;8.10;99.90;;;;;;5057160;28;20930;-74
2022/02/04 05:43:17;;;;;;;1999.90;999.90;;;8.10;99.90;;;;;;5075931;28;20474;-74
2022/02/04 05:45:51;;;;;;;1999.90;999.90;;;8.10;99.90;;;;;;5074238;28;20401;-74
2022/02/04 05:48:17;;;;;;;1999.90;999.90;;;8.10;99.90;;;;;;5075858;28;20411;-74
2022/02/04 05:51:31;;;;;;;1999.90;999.90;;;8.10;99.90;;;;;;5075046;28;20821;-74
2022/02/04 05:53:55;;;;;;;1999.90;999.90;;;8.00;99.90;;;;;;5066724;28;20807;-74
2022/02/04 06:04:12;;;;;;;1999.90;999.90;;;8.00;99.90;;;;;;5074299;28;20516;-74
2022/02/04 06:07:09;;;;;;;1999.90;999.90;;;8.00;99.90;;;;;;5073889;28;20428;-74
2022/02/04 06:22:35;;;;;;;1999.90;999.90;;;7.70;99.90;;;;;;5071623;28;20442;-74
2022/02/04 06:25:01;;;;;;;1999.90;999.90;;;7.70;99.90;;;;;;5071393;28;20761;-74
2022/02/04 06:27:27;;;;;;;1999.90;999.90;;;7.60;99.90;;;;;;5071666;28;20204;-74
2022/02/04 06:29:55;;;;;;;1999.90;999.90;;;7.60;99.90;;;;;;5071688;28;20242;-74
2022/02/04 06:32:20;;;;;;;1999.90;999.90;;;7.60;99.90;;;;;;5071599;28;20397;-74
2022/02/04 06:34:48;;;;;;;1999.90;999.90;;;7.50;99.90;;;;;;5071048;28;20976;-74
2022/02/04 06:37:14;;;;;;;1999.90;999.90;;;7.50;99.90;;;;;;5071488;28;20404;-74
2022/02/04 06:39:40;;;;;;;1999.90;999.90;;;7.50;99.90;;;;;;5071554;28;20410;-74
2022/02/04 06:42:06;;;;;;;1999.90;999.90;;;7.60;99.90;;;;;;5071496;28;20408;-74
2022/02/04 06:44:33;;;;;;;1999.90;999.90;;;7.60;99.90;;;;;;5071091;28;20926;-74
2022/02/04 06:46:59;;;;;;;1999.90;999.90;;;7.60;99.90;;;;;;5071426;28;20413;-74
2022/02/04 06:49:24;;;;;;;1999.90;999.90;;;7.60;99.90;;;;;;5071355;28;20405;-74
2022/02/04 06:51:50;;;;;;;1999.90;999.90;;;7.60;99.90;;;;;;5071430;28;20576;-74
2022/02/04 06:54:15;;;;;;;1999.90;999.90;;;7.70;99.90;;;;;;5070904;28;20285;-74
2022/02/04 06:56:41;;;;;;;1999.90;999.90;;;7.70;99.90;;;;;;5071296;28;20582;-74
2022/02/04 06:59:07;;;;;;;1999.90;999.90;;;7.80;99.90;;;;;;5075009;28;20170;-74
2022/02/04 07:01:33;;;;;;;1999.90;999.90;;;7.80;99.90;;;;;;5075098;28;20178;-74
2022/02/04 07:04:04;;;;;;;1999.90;999.90;;;7.80;99.90;;;;;;5074641;28;20709;-74
2022/02/04 07:06:35;;;;;;;1999.90;999.90;;;7.80;99.90;;;;;;5074960;28;20408;-74
2022/02/04 07:16:43;;;;;;;1999.90;999.90;;;7.90;99.90;;;;;;5074638;28;20590;-74
2022/02/04 07:21:52;;;;;;;1999.90;999.90;;;7.90;99.90;;;;;;5074710;28;20482;-74
2022/02/04 07:24:18;;;;;;;1999.90;999.90;;;7.90;99.90;;;;;;5074300;28;20456;-74
2022/02/04 07:26:44;;;;;;;1999.90;999.90;;;7.80;99.90;;;;;;5074576;28;20178;-74
2022/02/04 07:29:09;;;;;;;1999.90;999.90;;;7.90;99.90;;;;;;5074512;28;20197;-74
2022/02/04 07:31:38;;;;;;;1999.90;999.90;;;7.90;99.90;;;;;;5074524;28;20537;-74
2022/02/04 07:34:21;;;;;;;1999.90;999.90;;;8.00;99.90;;;;;;5074090;28;20672;-74
2022/02/04 07:41:59;;;;;;;1999.90;999.90;;;8.00;99.90;;;;;;5074488;28;20406;-74
2022/02/04 07:44:25;;;;;;;1999.90;999.90;;;8.10;99.90;;;;;;5073905;28;20512;-74
2022/02/04 07:46:50;;;;;;;1999.90;999.90;;;8.00;99.90;;;;;;5074149;28;20491;-74
2022/02/04 07:49:16;;;;;;;1999.90;999.90;;;8.00;99.90;;;;;;5074183;28;20190;-74
2022/02/04 07:51:42;;;;;;;1999.90;999.90;;;8.10;99.90;;;;;;5074085;28;20179;-74
2022/02/04 07:54:08;;;;;;;1999.90;999.90;;;8.10;99.90;;;;;;5073560;28;20278;-74
2022/02/04 07:56:34;;;;;;;1999.90;999.90;;;8.20;99.90;;;;;;5074011;28;20569;-74
2022/02/04 07:59:07;;;;;;;1999.90;999.90;;;8.10;99.90;;;;;;5073975;28;20410;-74
2022/02/04 08:01:33;;;;;;;1999.90;999.90;;;8.10;99.90;;;;;;5074079;28;20440;-74
2022/02/04 08:06:41;;;;;;;1999.90;999.90;;;8.20;99.90;;;;;;5073741;28;20408;-74
2022/02/04 08:09:19;;;;;;;1999.90;999.90;;;8.10;99.90;;;;;;5073792;28;20410;-74
2022/02/04 08:12:00;;;;;;;1999.90;999.90;;;8.20;99.90;;;;;;5073757;28;20458;-74
2022/02/04 08:14:48;;;;;;;1999.90;999.90;;;8.20;99.90;;;;;;5073427;28;20514;-75
2022/02/04 08:17:48;;;;;;;1999.90;999.90;;;8.20;99.90;;;;;;5073655;28;20429;-75
2022/02/04 08:38:49;;;;;;;1999.90;999.90;;;8.30;99.90;;;;;;5073245;28;20788;-74
2022/02/04 08:54:24;;;;;;;1999.90;999.90;;;8.70;99.90;;;;;;5072461;28;20556;-75
2022/02/04 08:59:37;;;;;;;1999.90;999.90;;;8.80;99.90;;;;;;5073075;28;20406;-74
2022/02/04 09:02:19;;;;;;;1999.90;999.90;;;8.80;99.90;;;;;;5072743;28;20405;-75
2022/02/04 09:04:48;;;;;;;1999.90;999.90;;;9.00;99.90;;;;;;5072323;28;20663;-74
2022/02/04 09:07:17;;;;;;;1999.90;999.90;;;9.10;99.90;;;;;;5072651;28;20946;-74
2022/02/04 09:09:52;;;;;;;1999.90;999.90;;;9.20;99.90;;;;;;5072563;28;20411;-74
2022/02/04 09:20:32;;;;;;;1999.90;999.90;;;9.30;99.90;;;;;;5072092;28;20388;-75
2022/02/04 09:22:57;;;;;;;1999.90;999.90;;;9.20;99.90;;;;;;5072324;28;20417;-75
2022/02/04 09:25:25;;;;;;;1999.90;999.90;;;9.30;99.90;;;;;;5072072;28;20914;-75
2022/02/04 09:27:51;;;;;;;1999.90;999.90;;;9.30;99.90;;;;;;5072226;28;20174;-75
2022/02/04 09:30:20;;;;;;;1999.90;999.90;;;9.40;99.90;;;;;;5072430;28;20891;-74
2022/02/04 09:32:46;;;;;;;1999.90;999.90;;;9.40;99.90;;;;;;5072183;28;20484;-75
2022/02/04 09:35:22;;;;;;;1999.90;999.90;;;9.50;99.90;;;;;;5071790;28;20946;-75
2022/02/04 09:37:48;;;;;;;1999.90;999.90;;;9.50;99.90;;;;;;5072145;28;20159;-74
2022/02/04 09:40:15;;;;;;;1999.90;999.90;;;9.50;99.90;;;;;;5072090;28;20397;-74
2022/02/04 09:42:42;;;;;;;1999.90;999.90;;;9.50;99.90;;;;;;5072040;28;20400;-75
2022/02/04 09:45:10;;;;;;;1999.90;999.90;;;9.70;99.90;;;;;;5071786;28;20410;-75
2022/02/04 09:47:37;;;;;;;1999.90;999.90;;;9.60;99.90;;;;;;5071937;28;20415;-75
2022/02/04 09:50:07;;;;;;;1999.90;999.90;;;9.60;99.90;;;;;;5071932;28;20439;-74
2022/02/04 10:09:04;;;;;;;1999.90;999.90;;;9.60;99.90;;;;;;5071505;28;20395;-74
2022/02/04 10:17:12;;;;;;;1999.90;999.90;;;9.70;99.90;;;;;;5071480;28;20460;-74
2022/02/04 10:22:20;;;;;;;1999.90;999.90;;;9.90;99.90;;;;;;5070917;28;20409;-76
2022/02/04 10:25:00;;;;;;;1999.90;999.90;;;10.00;99.90;;;;;;5070846;28;20991;-75
2022/02/04 10:27:30;;;;;;;1999.90;999.90;;;10.00;99.90;;;;;;5071381;28;20406;-75
2022/02/04 10:30:07;;;;;;;1999.90;999.90;;;10.00;99.90;;;;;;5070299;28;20901;-75
2022/02/04 10:32:33;;;;;;;1999.90;999.90;;;10.20;99.90;;;;;;5071807;28;20407;-75
2022/02/04 10:35:02;;;;;;;1999.90;999.90;;;10.30;99.90;;;;;;5074390;28;20403;-75
2022/02/04 10:37:30;;;;;;;1999.90;999.90;;;10.30;99.90;;;;;;5075207;28;20233;-75
2022/02/04 10:50:39;;;;;;;1999.90;999.90;;;10.00;99.90;;;;;;5073883;28;20846;-75
2022/02/04 11:03:28;;;;;;;1999.90;999.90;;;9.90;99.90;;;;;;5074629;28;20452;-75
2022/02/04 11:06:07;;;;;;;1999.90;999.90;;;9.80;99.90;;;;;;5073653;28;20783;-75
2022/02/04 11:36:00;;;;;;;1999.90;999.90;;;9.40;99.90;;;;;;5073220;28;20457;-74
2022/02/04 11:52:37;;;;;;;1999.90;999.90;;;9.10;99.90;;;;;;5072889;28;20424;-74
2022/02/04 11:55:09;;;;;;;1999.90;999.90;;;9.10;99.90;;;;;;5073350;28;20461;-74
2022/02/04 11:57:37;;;;;;;1999.90;999.90;;;9.20;99.90;;;;;;5073338;28;20414;-74
2022/02/04 12:00:20;;;;;;;1999.90;999.90;;;9.20;99.90;;;;;;5073404;28;20490;-74
2022/02/04 12:02:48;;;;;;;1999.90;999.90;;;9.10;99.90;;;;;;5073460;28;20498;-74
2022/02/04 12:05:16;;;;;;;1999.90;999.90;;;9.10;99.90;;;;;;5072671;28;20414;-73
2022/02/04 12:08:07;;;;;;;1999.90;999.90;;;9.10;99.90;;;;;;5073149;28;20419;-74
2022/02/04 12:10:44;;;;;;;1999.90;999.90;;;9.10;99.90;;;;;;5070493;28;20434;-74
2022/02/04 12:13:10;;;;;;;1999.90;999.90;;;9.10;99.90;;;;;;5072101;28;20908;-74
2022/02/04 12:15:47;;;;;;;1999.90;999.90;;;9.00;99.90;;;;;;5072485;28;20960;-74
2022/02/04 12:18:14;;;;;;;1999.90;999.90;;;9.00;99.90;;;;;;5073081;28;20417;-74
2022/02/04 12:20:56;;;;;;;1999.90;999.90;;;9.10;99.90;;;;;;5072592;28;20402;-74
2022/02/04 12:23:28;;;;;;;1999.90;999.90;;;9.10;99.90;;;;;;5073006;28;20425;-74
2022/02/04 12:26:08;;;;;;;1999.90;999.90;;;9.20;99.90;;;;;;5072581;28;20544;-74
2022/02/04 12:28:38;;;;;;;1999.90;999.90;;;9.40;99.90;;;;;;5073049;28;21071;-74
2022/02/04 12:31:10;;;;;;;1999.90;999.90;;;9.50;99.90;;;;;;5072615;28;20558;-74
2022/02/04 12:33:51;;;;;;;1999.90;999.90;;;9.60;99.90;;;;;;5072317;28;20859;-74
2022/02/04 12:36:21;;;;;;;1999.90;999.90;;;9.60;99.90;;;;;;5072373;28;20488;-74
2022/02/04 12:38:48;;;;;;;1999.90;999.90;;;9.50;99.90;;;;;;5072761;28;20419;-74
2022/02/04 12:41:42;;;;;;;1999.90;999.90;;;9.40;99.90;;;;;;5072719;28;20772;-74
2022/02/04 12:44:14;;;;;;;1999.90;999.90;;;9.30;99.90;;;;;;5069111;28;20458;-74
2022/02/04 12:46:43;;;;;;;1999.90;999.90;;;9.30;99.90;;;;;;5072586;28;20488;-74
2022/02/04 12:49:14;;;;;;;1999.90;999.90;;;9.40;99.90;;;;;;5072086;28;20912;-74
2022/02/04 12:54:13;;;;;;;1999.90;999.90;;;9.50;99.90;;;;;;5071402;28;20445;-74
2022/02/04 13:02:04;;;;;;;1999.90;999.90;;;9.60;99.90;;;;;;5072381;28;20641;-74
2022/02/04 13:10:28;;;;;;;1999.90;999.90;;;9.50;99.90;;;;;;5010110;28;20424;-74
2022/02/04 13:12:59;;;;;;;1999.90;999.90;;;9.40;99.90;;;;;;5010073;28;20816;-74
2022/02/04 13:15:28;;;;;;;1999.90;999.90;;;9.40;99.90;;;;;;5042293;28;20541;-74
2022/02/04 13:17:55;;;;;;;1999.90;999.90;;;9.40;99.90;;;;;;5072436;28;20483;-74
2022/02/04 13:20:22;;;;;;;1999.90;999.90;;;9.40;99.90;;;;;;5073446;28;20429;-74
2022/02/04 13:22:53;;;;;;;1999.90;999.90;;;9.40;99.90;;;;;;5072603;28;20425;-74
2022/02/04 13:25:20;;;;;;;1999.90;999.90;;;9.40;99.90;;;;;;5071981;28;20808;-74
2022/02/04 13:28:13;;;;;;;1999.90;999.90;;;9.40;99.90;;;;;;5073160;28;20412;-74
2022/02/04 13:30:43;;;;;;;1999.90;999.90;;;9.40;99.90;;;;;;5072699;28;20405;-74
2022/02/04 13:33:20;;;;;;;1999.90;999.90;;;9.40;99.90;;;;;;5071864;28;20428;-74
2022/02/04 13:36:04;;;;;;;1999.90;999.90;;;9.40;99.90;;;;;;5072299;28;20444;-74
2022/02/04 13:47:32;;;;;;;1999.90;999.90;;;10.20;99.90;;;;;;5072844;28;20406;-74
2022/02/04 13:55:26;;;;;;;1999.90;999.90;;;9.80;99.90;;;;;;5072156;28;20416;-74
2022/02/04 13:58:22;;;;;;;1999.90;999.90;;;9.60;99.90;;;;;;5073192;28;20452;-74
2022/02/04 14:01:06;;;;;;;1999.90;999.90;;;9.60;99.90;;;;;;5056376;28;20406;-74
2022/02/04 14:03:36;;;;;;;1999.90;999.90;;;9.70;99.90;;;;;;5073795;28;20436;-74
2022/02/04 14:06:16;;;;;;;1999.90;999.90;;;9.70;99.90;;;;;;5073960;28;20405;-74
2022/02/04 14:11:10;;;;;;;1999.90;999.90;;;9.80;99.90;;;;;;5073172;28;20411;-74
2022/02/04 14:13:36;;;;;;;1999.90;999.90;;;9.80;99.90;;;;;;5072369;28;20528;-74
2022/02/04 14:16:06;;;;;;;1999.90;999.90;;;9.90;99.90;;;;;;5072426;28;21030;-74
2022/02/04 14:18:36;;;;;;;1999.90;999.90;;;10.00;99.90;;;;;;5072977;28;20410;-74
2022/02/04 14:21:02;;;;;;;1999.90;999.90;;;10.40;99.90;;;;;;5073383;28;20405;-76
2022/02/04 14:23:28;;;;;;;1999.90;999.90;;;10.60;99.90;;;;;;5073140;28;20939;-75
2022/02/04 14:26:22;;;;;;;1999.90;999.90;;;10.70;99.90;;;;;;5072154;28;20405;-76
2022/02/04 14:29:03;;;;;;;1999.90;999.90;;;10.80;99.90;;;;;;5071989;28;20177;-73
2022/02/04 14:53:14;;;;;;;1999.90;999.90;;;10.20;99.90;;;;;;5071281;28;20485;-74
2022/02/04 14:59:04;;;;;;;1999.90;999.90;;;10.30;99.90;;;;;;5072327;28;20461;-74
2022/02/04 15:01:36;;;;;;;1999.90;999.90;;;10.40;99.90;;;;;;5071415;28;20419;-74
2022/02/04 15:04:13;;;;;;;1999.90;999.90;;;10.60;99.90;;;;;;5071289;28;20435;-74
2022/02/04 15:06:41;;;;;;;1999.90;999.90;;;10.60;99.90;;;;;;5072262;28;20386;-74
2022/02/04 15:09:10;;;;;;;1999.90;999.90;;;10.60;99.90;;;;;;5071046;28;20409;-74
2022/02/04 15:11:38;;;;;;;1999.90;999.90;;;10.40;99.90;;;;;;5070869;28;20464;-74
2022/02/04 15:14:06;;;;;;;1999.90;999.90;;;10.30;99.90;;;;;;5070545;28;20461;-74
2022/02/04 15:16:33;;;;;;;1999.90;999.90;;;10.20;99.90;;;;;;5070831;28;20453;-74
2022/02/04 15:19:00;;;;;;;1999.90;999.90;;;10.20;99.90;;;;;;5073185;28;20400;-74
2022/02/04 15:21:26;;;;;;;1999.90;999.90;;;10.10;99.90;;;;;;5074568;28;20412;-74
2022/02/04 15:23:54;;;;;;;1999.90;999.90;;;10.00;99.90;;;;;;5073664;28;20476;-75
2022/02/04 15:26:22;;;;;;;1999.90;999.90;;;10.00;99.90;;;;;;5073775;28;20775;-74
2022/02/04 15:28:54;;;;;;;1999.90;999.90;;;9.90;99.90;;;;;;5074349;28;20466;-75
2022/02/04 15:33:53;;;;;;;1999.90;999.90;;;9.60;99.90;;;;;;5073088;28;20433;-73
2022/02/04 15:37:02;;;;;;;1999.90;999.90;;;9.50;99.90;;;;;;5073637;28;20477;-73
2022/02/04 15:39:12;;;;;;;1999.90;999.90;;;9.30;99.90;;;;;;5067823;28;20451;-73
2022/02/04 15:41:39;;;;;;;1999.90;999.90;;;9.20;99.90;;;;;;5073878;28;20433;-72
2022/02/04 15:44:15;;;;;;;1999.90;999.90;;;9.10;99.90;;;;;;5073413;28;20410;-73
2022/02/04 16:00:12;;;;;;;1999.90;999.90;;;8.10;99.90;;;;;;5073838;28;20480;-73
2022/02/04 16:05:08;;;;;;;1999.90;999.90;;;8.00;99.90;;;;;;5073117;28;20413;-73
2022/02/04 16:07:33;;;;;;;1999.90;999.90;;;8.00;99.90;;;;;;5073447;28;20405;-73
2022/02/04 16:10:17;;;;;;;1999.90;999.90;;;8.10;99.90;;;;;;5072803;28;20409;-73
2022/02/04 16:12:56;;;;;;;1999.90;999.90;;;8.10;99.90;;;;;;5073410;28;20549;-73
2022/02/04 16:18:14;;;;;;;1999.90;999.90;;;8.10;99.90;;;;;;5073808;28;20766;-73
2022/02/04 16:23:35;;;;;;;1999.90;999.90;;;8.10;99.90;;;;;;5072835;28;20420;-73
2022/02/04 16:28:39;;;;;;;1999.90;999.90;;;8.10;99.90;;;;;;5073123;28;20409;-74
2022/02/04 16:31:14;;;;;;;1999.90;999.90;;;8.00;99.90;;;;;;5071620;28;20170;-74
2022/02/04 16:33:44;;;;;;;1999.90;999.90;;;8.00;99.90;;;;;;5072929;28;20425;-74
2022/02/04 16:36:22;;;;;;;1999.90;999.90;;;7.90;99.90;;;;;;5072372;28;20471;-75
2022/02/04 16:38:54;;;;;;;1999.90;999.90;;;7.80;99.90;;;;;;5072403;28;20394;-74
2022/02/04 16:41:26;;;;;;;1999.90;999.90;;;7.80;99.90;;;;;;5072867;28;20492;-75
2022/02/04 16:43:52;;;;;;;1999.90;999.90;;;7.70;99.90;;;;;;5072566;28;20825;-74
2022/02/04 16:46:18;;;;;;;1999.90;999.90;;;7.50;99.90;;;;;;5071958;28;20399;-75
2022/02/04 16:48:43;;;;;;;1999.90;999.90;;;6.90;99.90;;;;;;5054682;28;20179;-75
2022/02/04 16:51:10;;;;;;;1999.90;999.90;;;6.40;99.90;;;;;;5072619;28;20415;-75
2022/02/04 16:53:36;;;;;;;1999.90;999.90;;;6.10;99.90;;;;;;5071778;28;20574;-75
2022/02/04 16:56:03;;;;;;;1999.90;999.90;;;5.90;99.90;;;;;;5072016;28;20453;-75
2022/02/04 16:58:30;;;;;;;1999.90;999.90;;;5.80;99.90;;;;;;5071824;28;20397;-74
2022/02/04 17:00:55;;;;;;;1999.90;999.90;;;5.80;99.90;;;;;;5071900;28;20801;-75
2022/02/04 17:03:21;;;;;;;1999.90;999.90;;;5.80;99.90;;;;;;5072173;28;20478;-75
2022/02/04 17:08:21;;;;;;;1999.90;999.90;;;5.50;99.90;;;;;;5071596;28;20914;-74
2022/02/04 17:10:50;;;;;;;1999.90;999.90;;;5.50;99.90;;;;;;5072152;28;20437;-74
2022/02/04 17:13:18;;;;;;;1999.90;999.90;;;5.40;99.90;;;;;;5072167;28;20552;-75
2022/02/04 17:15:44;;;;;;;1999.90;999.90;;;5.30;99.90;;;;;;5071126;28;20448;-74
2022/02/04 17:18:11;;;;;;;1999.90;999.90;;;5.30;99.90;;;;;;5072186;28;20177;-74
2022/02/04 17:20:37;;;;;;;1999.90;999.90;;;5.30;99.90;;;;;;5072144;28;20425;-75
2022/02/04 17:23:04;;;;;;;1999.90;999.90;;;5.20;99.90;;;;;;5071335;28;20256;-75
2022/02/04 17:25:34;;;;;;;1999.90;999.90;;;5.20;99.90;;;;;;5071589;28;20494;-75
2022/02/04 17:28:00;;;;;;;1999.90;999.90;;;5.20;99.90;;;;;;5071949;28;20409;-74
2022/02/04 17:30:26;;;;;;;1999.90;999.90;;;5.20;99.90;;;;;;5071774;28;20405;-74
2022/02/04 17:32:52;;;;;;;1999.90;999.90;;;5.20;99.90;;;;;;5073606;28;20417;-74
2022/02/04 17:35:20;;;;;;;1999.90;999.90;;;5.20;99.90;;;;;;5072997;28;20543;-74
2022/02/04 17:37:46;;;;;;;1999.90;999.90;;;5.20;99.90;;;;;;5072746;28;20878;-75
2022/02/04 17:40:14;;;;;;;1999.90;999.90;;;5.20;99.90;;;;;;5072920;28;20171;-74
2022/02/04 17:42:42;;;;;;;1999.90;999.90;;;5.20;99.90;;;;;;5072201;28;20191;-74
2022/02/04 17:45:10;;;;;;;1999.90;999.90;;;5.20;99.90;;;;;;5072644;28;20889;-75
2022/02/04 17:47:40;;;;;;;1999.90;999.90;;;5.20;99.90;;;;;;5072871;28;20194;-75
2022/02/04 17:50:18;;;;;;;1999.90;999.90;;;5.30;99.90;;;;;;5072043;28;20163;-75
2022/02/04 17:52:53;;;;;;;1999.90;999.90;;;5.30;99.90;;;;;;5071080;28;20428;-75
2022/02/04 17:55:28;;;;;;;1999.90;999.90;;;5.30;99.90;;;;;;5071136;28;20181;-75
2022/02/04 17:58:09;;;;;;;1999.90;999.90;;;5.30;99.90;;;;;;5071710;28;20397;-75
2022/02/04 18:06:10;;;;;;;1999.90;999.90;;;5.20;99.90;;;;;;5073343;28;20409;-74
2022/02/04 18:08:36;;;;;;;1999.90;999.90;;;5.20;99.90;;;;;;5073505;28;20637;-74
2022/02/04 18:11:03;;;;;;;1999.90;999.90;;;5.10;99.90;;;;;;5074020;28;20491;-75
2022/02/04 18:13:31;;;;;;;1999.90;999.90;;;5.10;99.90;;;;;;5074063;28;20202;-75
2022/02/04 18:15:57;;;;;;;1999.90;999.90;;;5.10;99.90;;;;;;5073194;28;20814;-75
2022/02/04 18:18:23;;;;;;;1999.90;999.90;;;5.10;99.90;;;;;;5069994;28;20174;-73
2022/02/04 18:20:50;;;;;;;1999.90;999.90;;;5.20;99.90;;;;;;5071400;28;20159;-75
2022/02/04 18:23:20;;;;;;;1999.90;999.90;;;5.20;99.90;;;;;;5069938;28;20656;-75
2022/02/04 18:25:47;;;;;;;1999.90;999.90;;;5.10;99.90;;;;;;5070850;28;20405;-75
2022/02/04 18:28:13;;;;;;;1999.90;999.90;;;5.10;99.90;;;;;;5070617;28;20290;-75
2022/02/04 18:30:39;;;;;;;1999.90;999.90;;;5.10;99.90;;;;;;5070770;28;20412;-74
2022/02/04 18:33:05;;;;;;;1999.90;999.90;;;5.00;99.90;;;;;;5071337;28;20274;-75
2022/02/04 18:35:31;;;;;;;1999.90;999.90;;;5.00;99.90;;;;;;5070729;28;20190;-75
2022/02/04 18:38:25;;;;;;;1999.90;999.90;;;4.90;99.90;;;;;;5070612;28;20194;-75
2022/02/04 18:43:39;;;;;;;1999.90;999.90;;;4.60;99.90;;;;;;5070764;28;20183;-74
2022/02/04 18:46:23;;;;;;;1999.90;999.90;;;4.40;99.90;;;;;;5070710;28;20163;-75
2022/02/04 18:48:54;;;;;;;1999.90;999.90;;;4.10;99.90;;;;;;5071111;28;20167;-75
2022/02/04 18:53:57;;;;;;;1999.90;999.90;;;3.90;99.90;;;;;;5072734;28;20325;-74
2022/02/04 18:57:05;;;;;;;1999.90;999.90;;;3.90;99.90;;;;;;5074556;28;20195;-74
2022/02/04 18:59:29;;;;;;;1999.90;999.90;;;3.80;99.90;;;;;;5073900;28;20541;-74
2022/02/04 19:01:55;;;;;;;1999.90;999.90;;;3.80;99.90;;;;;;5074747;28;20166;-75
2022/02/04 19:04:29;;;;;;;1999.90;999.90;;;3.80;99.90;;;;;;5074283;28;20187;-75
2022/02/04 19:07:03;;;;;;;1999.90;999.90;;;3.80;99.90;;;;;;5056201;28;20417;-74
2022/02/04 19:09:29;;;;;;;1999.90;999.90;;;3.80;99.90;;;;;;5074837;28;20170;-75
2022/02/04 19:12:03;;;;;;;1999.90;999.90;;;3.80;99.90;;;;;;5074520;28;20220;-75
2022/02/04 19:17:27;;;;;;;1999.90;999.90;;;3.80;99.90;;;;;;5074513;28;20410;-74
2022/02/04 19:19:59;;;;;;;1999.90;999.90;;;3.90;99.90;;;;;;5074449;28;20581;-74